D/T METAR WX W/DIR W/SPE G/SPE TEMP DEWP
19/03/19 04:20 EGMD 190420Z AUTO 28002KT 9999 NCD 02/02 Q1026 W (280°) 2.3mph 2°C 2°C
19/03/19 03:50 EGMD 190350Z AUTO 30003KT 9999 NCD 00/00 Q1026 WNW (300°) 3.5mph 0°C 0°C
19/03/19 03:20 EGMD 190320Z AUTO 28002KT 1400 BR FEW002/// 00/00 Q1026 BR W (280°) 2.3mph 0°C 0°C
19/03/19 02:50 EGMD 190250Z AUTO 26003KT 0600 FG NCD 00/M00 Q1025 FG W (260°) 3.5mph 0°C 0°C
19/03/19 02:20 EGMD 190220Z AUTO 24003KT 9999 FEW002/// 02/02 Q1025 WSW (240°) 3.5mph 2°C 2°C
19/03/19 01:50 EGMD 190150Z AUTO 27003KT 9999 NCD 02/02 Q1025 W (270°) 3.5mph 2°C 2°C
19/03/19 01:20 EGMD 190120Z AUTO 28004KT 9999 NCD 02/02 Q1025 W (280°) 4.6mph 2°C 2°C
19/03/19 00:20 EGMD 190020Z AUTO 30005KT 9999 NCD 02/02 Q1025 WNW (300°) 5.8mph 2°C 2°C
18/03/19 23:50 EGMD 182350Z AUTO 32005KT 9999 NCD 03/03 Q1025 NW (320°) 5.8mph 3°C 3°C
18/03/19 22:50 EGMD 182250Z AUTO 34005KT 9000 NCD 03/03 Q1025 NNW (340°) 5.8mph 3°C 3°C
18/03/19 22:20 EGMD 182220Z AUTO 31005KT 9999 NCD 05/04 Q1024 NW (310°) 5.8mph 5°C 4°C
18/03/19 21:50 EGMD 182150Z AUTO 29005KT 9999 NCD 05/04 Q1024 WNW (290°) 5.8mph 5°C 4°C
18/03/19 21:20 EGMD 182120Z AUTO 27005KT 9999 NCD 04/03 Q1024 W (270°) 5.8mph 4°C 3°C
18/03/19 20:50 EGMD 182050Z AUTO 24004KT 9999 NCD 05/04 Q1024 WSW (240°) 4.6mph 5°C 4°C
18/03/19 19:50 EGMD 181950Z AUTO 20003KT 9999 NCD 05/03 Q1024 SSW (200°) 3.5mph 5°C 3°C
18/03/19 19:20 EGMD 181920Z AUTO 21006KT 9999 NCD 06/04 Q1023 SSW (210°) 6.9mph 6°C 4°C
18/03/19 18:50 EGMD 181850Z AUTO 20007KT 9999 NCD 06/04 Q1023 SSW (200°) 8.1mph 6°C 4°C
18/03/19 18:20 EGMD 181820Z 22007KT 9999 FEW025 07/05 Q1023 SW (220°) 8.1mph 7°C 5°C
18/03/19 17:50 EGMD 181750Z 22009KT 9999 VCSH FEW030 SCT041 08/05 Q1023 VCSH SW (220°) 10.4mph 8°C 5°C
18/03/19 17:20 EGMD 181720Z 24010KT 9999 VCSH FEW030 SCT042 08/04 Q1022 VCSH WSW (240°) 11.5mph 8°C 4°C
18/03/19 16:50 EGMD 181650Z 22012KT 9999 VCSH FEW028 SCT045 08/05 Q1022 VCSH SW (220°) 13.8mph 8°C 5°C
18/03/19 16:20 EGMD 181620Z 21012KT 9999 VCSH FEW028 08/04 Q1022 VCSH SSW (210°) 13.8mph 8°C 4°C
18/03/19 15:50 EGMD 181550Z 23014KT 9999 VCSH FEW027 08/05 Q1022 VCSH SW (230°) 16.1mph 8°C 5°C
18/03/19 15:20 EGMD 181520Z 24013KT 9999 VCSH FEW025 SCT040 09/06 Q1022 VCSH WSW (240°) 15.0mph 9°C 6°C
18/03/19 14:50 EGMD 181450Z 23012KT 9999 SCT040 10/06 Q1021 SW (230°) 13.8mph 10°C 6°C
18/03/19 14:20 EGMD 181420Z 23009KT 9999 FEW040 10/05 Q1021 SW (230°) 10.4mph 10°C 5°C
18/03/19 13:50 EGMD 181350Z 26006KT 9999 FEW040 10/03 Q1021 W (260°) 6.9mph 10°C 3°C
18/03/19 13:20 EGMD 181320Z 29007KT 220V330 9999 BKN036 10/04 Q1021 WNW (290°) 8.1mph 10°C 4°C
18/03/19 12:50 EGMD 181250Z 27006KT 230V310 9999 SCT034 11/04 Q1021 W (270°) 6.9mph 11°C 4°C
18/03/19 12:20 EGMD 181220Z 31006KT 270V340 9999 FEW025 BKN035 10/03 Q1021 NW (310°) 6.9mph 10°C 3°C
18/03/19 11:50 EGMD 181150Z 30009KT 280V340 9999 FEW025 BKN045 11/04 Q1021 WNW (300°) 10.4mph 11°C 4°C
18/03/19 10:50 EGMD 181050Z 32009KT 280V350 9999 FEW025 10/04 Q1021 NW (320°) 10.4mph 10°C 4°C
18/03/19 10:20 EGMD 181020Z 32010KT 280V350 9999 FEW023 09/04 Q1021 NW (320°) 11.5mph 9°C 4°C
18/03/19 09:50 EGMD 180950Z 31011KT 9999 FEW022 09/05 Q1021 NW (310°) 12.7mph 9°C 5°C
18/03/19 09:20 EGMD 180920Z 30010KT 9999 FEW020 08/05 Q1020 WNW (300°) 11.5mph 8°C 5°C
18/03/19 08:50 EGMD 180850Z 30010KT CAVOK 07/05 Q1020 WNW (300°) 11.5mph 7°C 5°C
18/03/19 07:50 EGMD 180750Z AUTO 29008KT 9999 NCD 05/03 Q1019 WNW (290°) 9.2mph 5°C 3°C
18/03/19 06:50 EGMD 180650Z AUTO 28007KT 9999 FEW042/// 04/02 Q1019 W (280°) 8.1mph 4°C 2°C
18/03/19 06:20 EGMD 180620Z AUTO 29009KT 9999 NCD 03/02 Q1018 WNW (290°) 10.4mph 3°C 2°C
18/03/19 05:50 EGMD 180550Z AUTO 27008KT 9999 SCT033/// 03/02 Q1018 W (270°) 9.2mph 3°C 2°C
18/03/19 05:20 EGMD 180520Z AUTO 28009KT 9999 NCD 03/02 Q1018 W (280°) 10.4mph 3°C 2°C
18/03/19 04:50 EGMD 180450Z AUTO 29008KT 9999 NCD 03/02 Q1018 WNW (290°) 9.2mph 3°C 2°C
18/03/19 04:20 EGMD 180420Z AUTO 29009KT 9999 NCD 03/02 Q1017 WNW (290°) 10.4mph 3°C 2°C
18/03/19 03:50 EGMD 180350Z AUTO 28009KT 9999 NCD 03/02 Q1017 W (280°) 10.4mph 3°C 2°C
18/03/19 03:20 EGMD 180320Z AUTO 27007KT 9999 NCD 03/02 Q1017 W (270°) 8.1mph 3°C 2°C
18/03/19 02:50 EGMD 180250Z AUTO 28007KT 9999 NCD 03/02 Q1016 W (280°) 8.1mph 3°C 2°C
18/03/19 02:20 EGMD 180220Z AUTO 29007KT 9999 NCD 03/02 Q1016 WNW (290°) 8.1mph 3°C 2°C
18/03/19 01:50 EGMD 180150Z AUTO 27006KT 9999 NCD 03/02 Q1016 W (270°) 6.9mph 3°C 2°C
18/03/19 01:20 EGMD 180120Z AUTO 27007KT 9999 NCD 03/02 Q1015 W (270°) 8.1mph 3°C 2°C
18/03/19 00:50 EGMD 180050Z AUTO 26007KT 9999 FEW037/// 04/02 Q1015 W (260°) 8.1mph 4°C 2°C
18/03/19 00:20 EGMD 180020Z AUTO 27008KT 9999 OVC037/// 05/03 Q1014 W (270°) 9.2mph 5°C 3°C
17/03/19 23:50 EGMD 172350Z AUTO 27008KT 9999 BKN038/// 05/03 Q1014 W (270°) 9.2mph 5°C 3°C
17/03/19 23:20 EGMD 172320Z AUTO 26007KT 9999 BKN040/// 04/03 Q1014 W (260°) 8.1mph 4°C 3°C
17/03/19 22:50 EGMD 172250Z AUTO 28009KT 9999 NCD 04/02 Q1013 W (280°) 10.4mph 4°C 2°C
17/03/19 22:20 EGMD 172220Z AUTO 27007KT 9999 NCD 04/02 Q1013 W (270°) 8.1mph 4°C 2°C
17/03/19 21:50 EGMD 172150Z AUTO 26007KT 9999 NCD 04/02 Q1013 W (260°) 8.1mph 4°C 2°C
17/03/19 21:20 EGMD 172120Z AUTO 27008KT 9999 NCD 04/02 Q1012 W (270°) 9.2mph 4°C 2°C
17/03/19 20:20 EGMD 172020Z AUTO 26011KT 9999 NCD 05/02 Q1012 W (260°) 12.7mph 5°C 2°C
17/03/19 19:50 EGMD 171950Z AUTO 27012KT 9999 NCD 05/02 Q1011 W (270°) 13.8mph 5°C 2°C
17/03/19 19:20 EGMD 171920Z AUTO 24008KT 9999 NCD 04/02 Q1011 WSW (240°) 9.2mph 4°C 2°C
17/03/19 18:50 EGMD 171850Z AUTO 24007KT 9999 NCD 04/02 Q1010 WSW (240°) 8.1mph 4°C 2°C
17/03/19 18:20 EGMD 171820Z 33006KT 280V020 9999 VCTS SCT018CB 04/02 Q1010 RESHRA VCTS NNW (330°) 6.9mph 4°C 2°C
17/03/19 17:20 EGMD 171720Z 35015KT 9999 SCT020 BKN040 04/03 Q1010 RESHRA N (350°) 17.3mph 4°C 3°C
17/03/19 16:50 EGMD 171650Z 25016KT 9999 VCSH SCT025CB 08/01 Q1009 VCSH WSW (250°) 18.4mph 8°C 1°C
17/03/19 16:20 EGMD 171620Z 26013KT 9999 FEW025CB 09/M00 Q1008 W (260°) 15.0mph 9°C 0°C
17/03/19 15:50 EGMD 171550Z 25017KT 9999 VCSH FEW041CB 10/04 Q1008 VCSH WSW (250°) 19.6mph 10°C 4°C
17/03/19 15:20 EGMD 171520Z 26017KT 9999 SCT045 11/M01 Q1008 W (260°) 19.6mph 11°C -1°C
17/03/19 14:20 EGMD 171420Z 28017G27KT 9999 VCSH SCT049 09/00 Q1007 VCSH W (280°) 19.6mph 31.1mph 9°C 0°C
17/03/19 13:50 EGMD 171350Z 27019KT 9999 SCT042 11/00 Q1007 W (270°) 21.9mph 11°C 0°C
17/03/19 13:20 EGMD 171320Z 29013KT 9999 FEW012 SCT042 10/02 Q1007 WNW (290°) 15.0mph 10°C 2°C
17/03/19 12:50 EGMD 171250Z 28016KT 9999 -SHRA FEW006 SCT039 08/01 Q1006 -SHRA W (280°) 18.4mph 8°C 1°C
17/03/19 12:20 EGMD 171220Z 29016KT 9999 -SHRA FEW025 BKN040 09/02 Q1006 -SHRA WNW (290°) 18.4mph 9°C 2°C
17/03/19 11:50 EGMD 171150Z 29016KT 250V320 9999 FEW025 SCT040 09/02 Q1006 WNW (290°) 18.4mph 9°C 2°C
17/03/19 10:50 EGMD 171050Z 28015KT 9999 SCT026 09/03 Q1006 W (280°) 17.3mph 9°C 3°C
17/03/19 10:20 EGMD 171020Z 28017KT 9999 SCT027 08/02 Q1005 W (280°) 19.6mph 8°C 2°C
17/03/19 09:20 EGMD 170920Z 28016KT 9999 FEW022 08/04 Q1005 W (280°) 18.4mph 8°C 4°C
17/03/19 08:50 EGMD 170850Z 29016KT 9999 FEW020 07/04 Q1004 WNW (290°) 18.4mph 7°C 4°C
17/03/19 08:20 EGMD 170820Z 27012KT 9999 FEW012 07/04 Q1004 W (270°) 13.8mph 7°C 4°C
17/03/19 07:50 EGMD 170750Z AUTO 27011KT 9999 NCD 06/04 Q1003 W (270°) 12.7mph 6°C 4°C
17/03/19 07:20 EGMD 170720Z AUTO 26011KT 9999 NCD 05/04 Q1003 W (260°) 12.7mph 5°C 4°C
17/03/19 06:50 EGMD 170650Z AUTO 26011KT 9999 NCD 05/03 Q1002 W (260°) 12.7mph 5°C 3°C
17/03/19 06:20 EGMD 170620Z AUTO 26011KT 9999 NCD 04/03 Q1002 W (260°) 12.7mph 4°C 3°C
17/03/19 05:50 EGMD 170550Z AUTO 26010KT 9999 NCD 05/03 Q1001 W (260°) 11.5mph 5°C 3°C
17/03/19 05:20 EGMD 170520Z AUTO 27011KT 9999 NCD 05/03 Q1001 W (270°) 12.7mph 5°C 3°C
17/03/19 04:50 EGMD 170450Z AUTO 26012KT 9999 NCD 05/04 Q1000 W (260°) 13.8mph 5°C 4°C
17/03/19 04:20 EGMD 170420Z AUTO 26012KT 9999 NCD 06/04 Q1000 W (260°) 13.8mph 6°C 4°C
17/03/19 03:20 EGMD 170320Z AUTO 26013KT 9999 NCD 06/05 Q0999 W (260°) 15.0mph 6°C 5°C
17/03/19 02:50 EGMD 170250Z AUTO 27015KT 9999 NCD 07/05 Q0999 W (270°) 17.3mph 7°C 5°C
17/03/19 01:50 EGMD 170150Z AUTO 26012KT 9999 NCD 08/07 Q0998 W (260°) 13.8mph 8°C 7°C
17/03/19 01:20 EGMD 170120Z AUTO 26017KT 9999 FEW011/// SCT042/// 08/07 Q0998 W (260°) 19.6mph 8°C 7°C
17/03/19 00:50 EGMD 170050Z AUTO 25017KT 9999 -RA FEW014/// SCT019/// BKN027/// 08/07 Q0997 -RA WSW (250°) 19.6mph 8°C 7°C
17/03/19 00:20 EGMD 170020Z AUTO 25018KT 9999 -RA FEW019/// SCT049/// 09/07 Q0997 -RA WSW (250°) 20.7mph 9°C 7°C
16/03/19 23:50 EGMD 162350Z AUTO 24022G32KT 9999 -RA FEW009/// SCT013/// BKN018/// 09/07 Q0997 RERA -RA WSW (240°) 25.3mph 36.8mph 9°C 7°C
16/03/19 23:20 EGMD 162320Z AUTO 23031KT 9999 -RA BKN014/// OVC019/// 10/08 Q0997 -RA SW (230°) 35.7mph 10°C 8°C
16/03/19 22:50 EGMD 162250Z AUTO 23031G42KT 9999 -RA BKN017/// OVC022/// 10/08 Q0997 -RA SW (230°) 35.7mph 48.3mph 10°C 8°C
16/03/19 22:20 EGMD 162220Z AUTO 22033G43KT 9999 OVC018/// 10/08 Q0997 SW (220°) 38.0mph 49.5mph 10°C 8°C
16/03/19 21:50 EGMD 162150Z AUTO 23031G42KT 9999 BKN019/// OVC024/// 10/07 Q0998 SW (230°) 35.7mph 48.3mph 10°C 7°C
16/03/19 21:20 EGMD 162120Z AUTO 22030KT 9999 OVC023/// 11/07 Q0998 SW (220°) 34.5mph 11°C 7°C
16/03/19 20:50 EGMD 162050Z AUTO 22028KT 9999 BKN026/// OVC031/// 11/08 Q0999 SW (220°) 32.2mph 11°C 8°C
16/03/19 20:20 EGMD 162020Z AUTO 22029KT 9999 BKN031/// OVC038/// 11/08 Q0999 SW (220°) 33.4mph 11°C 8°C
16/03/19 19:50 EGMD 161950Z AUTO 22030KT 9999 OVC039/// 11/08 Q1000 SW (220°) 34.5mph 11°C 8°C
16/03/19 19:20 EGMD 161920Z AUTO 22027KT 9999 FEW033/// OVC039/// 10/08 Q1000 SW (220°) 31.1mph 10°C 8°C
16/03/19 18:50 EGMD 161850Z AUTO 23029KT 9999 BKN040/// 10/08 Q1000 SW (230°) 33.4mph 10°C 8°C
16/03/19 18:20 EGMD 161820Z 23031G41KT 9999 BKN039 11/07 Q1001 SW (230°) 35.7mph 47.2mph 11°C 7°C
16/03/19 17:50 EGMD 161750Z 23030KT 9999 FEW034 BKN042 11/08 Q1001 SW (230°) 34.5mph 11°C 8°C
16/03/19 17:20 EGMD 161720Z 24032G45KT 9999 SCT034 BKN041 11/07 Q1001 WSW (240°) 36.8mph 51.8mph 11°C 7°C
16/03/19 16:50 EGMD 161650Z 24030KT 9999 FEW033 BKN039 11/07 Q1002 WSW (240°) 34.5mph 11°C 7°C
16/03/19 16:20 EGMD 161620Z 24026G38KT 9999 FEW036 BKN043 11/07 Q1002 WSW (240°) 29.9mph 43.7mph 11°C 7°C
16/03/19 15:50 EGMD 161550Z 24031G41KT 9999 FEW025 BKN036 11/07 Q1003 WSW (240°) 35.7mph 47.2mph 11°C 7°C
16/03/19 15:20 EGMD 161520Z 24030G41KT 9999 FEW024 BKN037 11/07 Q1003 WSW (240°) 34.5mph 47.2mph 11°C 7°C
16/03/19 14:50 EGMD 161450Z 24033G45KT 9999 FEW024 BKN033 11/07 Q1003 WSW (240°) 38.0mph 51.8mph 11°C 7°C
16/03/19 14:20 EGMD 161420Z 24035G45KT 9999 SCT020 BKN025 OVC038 11/07 Q1004 WSW (240°) 40.3mph 51.8mph 11°C 7°C
16/03/19 13:50 EGMD 161350Z 23031G42KT 9999 FEW019 BKN025 BKN031 10/08 Q1004 SW (230°) 35.7mph 48.3mph 10°C 8°C
16/03/19 13:20 EGMD 161320Z 24029G40KT 9999 -RA BKN016 10/08 Q1005 -RA WSW (240°) 33.4mph 46.0mph 10°C 8°C
16/03/19 12:50 EGMD 161250Z 24026G40KT 8000 -DZ SCT018 BKN025 10/08 Q1005 -DZ WSW (240°) 29.9mph 46.0mph 10°C 8°C
16/03/19 12:20 EGMD 161220Z 24029G41KT 9999 -RA BKN010 10/08 Q1006 -RA WSW (240°) 33.4mph 47.2mph 10°C 8°C
16/03/19 11:50 EGMD 161150Z 23030G41KT 9999 -DZ SCT019 BKN024 11/08 Q1006 -DZ SW (230°) 34.5mph 47.2mph 11°C 8°C
16/03/19 11:20 EGMD 161120Z 23031G44KT 9999 FEW008 BKN027 11/09 Q1006 SW (230°) 35.7mph 50.6mph 11°C 9°C
16/03/19 10:50 EGMD 161050Z 24025KT 9999 FEW008 BKN013 10/09 Q1006 WSW (240°) 28.8mph 10°C 9°C
16/03/19 10:20 EGMD 161020Z 24025KT 5000 -RADZ BKN009 10/09 Q1007 -RA -DZ WSW (240°) 28.8mph 10°C 9°C
16/03/19 09:50 EGMD 160950Z 23026KT 9999 FEW009 BKN032 OVC038 10/08 Q1007 SW (230°) 29.9mph 10°C 8°C
16/03/19 09:20 EGMD 160920Z 24026G36KT 9999 FEW007 BKN032 10/09 Q1007 WSW (240°) 29.9mph 41.4mph 10°C 9°C
16/03/19 08:50 EGMD 160850Z 24025G40KT 9999 FEW018 SCT023 BKN034 11/08 Q1007 WSW (240°) 28.8mph 46.0mph 11°C 8°C
16/03/19 08:20 EGMD 160820Z 24027KT 9999 FEW022 BKN027 OVC032 11/08 Q1008 WSW (240°) 31.1mph 11°C 8°C
16/03/19 07:50 EGMD 160750Z AUTO 24027KT 9999 FEW020/// OVC030/// 10/08 Q1008 WSW (240°) 31.1mph 10°C 8°C
16/03/19 07:20 EGMD 160720Z AUTO 23028KT 9999 FEW011/// SCT015/// OVC030/// 10/09 Q1008 SW (230°) 32.2mph 10°C 9°C
16/03/19 06:50 EGMD 160650Z AUTO 24026G38KT 9000 OVC010/// 10/09 Q1008 WSW (240°) 29.9mph 43.7mph 10°C 9°C
16/03/19 06:20 EGMD 160620Z AUTO 24025KT 9999 BKN011/// OVC016/// 10/09 Q1009 WSW (240°) 28.8mph 10°C 9°C
16/03/19 05:50 EGMD 160550Z AUTO 24023KT 9999 SCT004/// BKN008/// OVC013/// 10/09 Q1009 WSW (240°) 26.5mph 10°C 9°C
16/03/19 05:20 EGMD 160520Z AUTO 24022KT 8000 BKN004/// BKN007/// OVC012/// 10/09 Q1009 WSW (240°) 25.3mph 10°C 9°C
16/03/19 04:50 EGMD 160450Z AUTO 24023KT 9999 BKN007/// OVC011/// 10/09 Q1009 WSW (240°) 26.5mph 10°C 9°C
16/03/19 04:20 EGMD 160420Z AUTO 24024KT 9999 BKN009/// OVC014/// 10/09 Q1010 WSW (240°) 27.6mph 10°C 9°C
16/03/19 03:50 EGMD 160350Z AUTO 24025G36KT 9999 BKN011/// OVC015/// 10/09 Q1009 WSW (240°) 28.8mph 41.4mph 10°C 9°C
16/03/19 03:20 EGMD 160320Z AUTO 24024KT 9999 BKN011/// OVC016/// 10/09 Q1010 WSW (240°) 27.6mph 10°C 9°C
16/03/19 02:50 EGMD 160250Z AUTO 25025G38KT 9999 BKN008/// OVC012/// 10/09 Q1010 WSW (250°) 28.8mph 43.7mph 10°C 9°C
16/03/19 02:20 EGMD 160220Z AUTO 25025G35KT 9999 OVC008/// 10/09 Q1010 WSW (250°) 28.8mph 40.3mph 10°C 9°C
16/03/19 01:50 EGMD 160150Z AUTO 24024KT 9999 SCT005/// OVC008/// 10/09 Q1011 WSW (240°) 27.6mph 10°C 9°C
16/03/19 01:20 EGMD 160120Z AUTO 24025G35KT 6000 SCT004/// OVC007/// 10/10 Q1011 WSW (240°) 28.8mph 40.3mph 10°C 10°C
16/03/19 00:50 EGMD 160050Z AUTO 24020KT 9999 OVC009/// 10/09 Q1011 WSW (240°) 23.0mph 10°C 9°C
16/03/19 00:20 EGMD 160020Z AUTO 24019KT 9999 OVC008/// 10/09 Q1011 WSW (240°) 21.9mph 10°C 9°C
15/03/19 23:50 EGMD 152350Z AUTO 24017KT 9999 OVC008/// 10/10 Q1012 WSW (240°) 19.6mph 10°C 10°C
15/03/19 23:20 EGMD 152320Z AUTO 25018KT 9999 OVC009/// 11/10 Q1012 WSW (250°) 20.7mph 11°C 10°C
15/03/19 22:50 EGMD 152250Z AUTO 25018KT 9999 OVC008/// 11/10 Q1012 WSW (250°) 20.7mph 11°C 10°C
15/03/19 22:20 EGMD 152220Z AUTO 25016KT 9999 OVC007/// 10/10 Q1012 WSW (250°) 18.4mph 10°C 10°C